Terminal Aerodrome Forecast
Issued by NWS Shreveport, LA

Home | Current Version | Previous Version | Text Only | Print | Product List | Glossary On
Versions: 1 2 3 4 5 6 7 8 9 10 11 12
000
FTUS44 KSHV 181100
TAFSHV
TAF
KSHV 181122Z 1812/1912 18004KT P6SM SCT150 BKN250
     FM182000 15005KT P6SM VCTS BKN050CB BKN150
     FM190300 VRB03KT P6SM BKN150
      TEMPO 1909/1912 3SM BR BKN020=

USA.gov is the U.S. government's official web portal to all federal, state and local government web resources and services.